sensor_id;sensor_type;location;lat;lon;timestamp;pressure;altitude;pressure_sealevel;temperature;humidity
39197;BME280;42889;51.112;13.772;2023-01-28T00:00:48;99950.97;;;-0.43;100.00
39197;BME280;42889;51.112;13.772;2023-01-28T00:03:14;99950.97;;;-0.43;100.00
39197;BME280;42889;51.112;13.772;2023-01-28T00:05:42;99956.63;;;-0.32;100.00
39197;BME280;42889;51.112;13.772;2023-01-28T00:08:09;99950.91;;;-0.41;100.00
39197;BME280;42889;51.112;13.772;2023-01-28T00:10:36;99945.22;;;-0.71;100.00
39197;BME280;42889;51.112;13.772;2023-01-28T00:13:06;99949.38;;;-0.66;100.00
39197;BME280;42889;51.112;13.772;2023-01-28T00:15:33;99953.59;;;-0.62;100.00
39197;BME280;42889;51.112;13.772;2023-01-28T00:18:00;99952.53;;;-0.58;100.00
39197;BME280;42889;51.112;13.772;2023-01-28T00:20:26;99959.69;;;-0.60;100.00
39197;BME280;42889;51.112;13.772;2023-01-28T00:22:53;99954.50;;;-0.63;100.00
39197;BME280;42889;51.112;13.772;2023-01-28T00:25:20;99957.22;;;-0.64;100.00
39197;BME280;42889;51.112;13.772;2023-01-28T00:27:48;99959.78;;;-0.63;100.00
39197;BME280;42889;51.112;13.772;2023-01-28T00:30:15;99968.75;;;-0.65;100.00
39197;BME280;42889;51.112;13.772;2023-01-28T00:32:42;99960.25;;;-0.53;100.00
39197;BME280;42889;51.112;13.772;2023-01-28T00:35:10;99965.38;;;-0.50;100.00
39197;BME280;42889;51.112;13.772;2023-01-28T00:37:40;99956.19;;;-0.60;100.00
39197;BME280;42889;51.112;13.772;2023-01-28T00:40:07;99962.25;;;-0.58;100.00
39197;BME280;42889;51.112;13.772;2023-01-28T00:42:35;99961.66;;;-0.65;100.00
39197;BME280;42889;51.112;13.772;2023-01-28T00:45:03;99963.69;;;-0.51;100.00
39197;BME280;42889;51.112;13.772;2023-01-28T00:47:29;99958.66;;;-0.57;100.00
39197;BME280;42889;51.112;13.772;2023-01-28T00:49:56;99967.22;;;-0.71;100.00
39197;BME280;42889;51.112;13.772;2023-01-28T00:52:23;99966.94;;;-0.65;100.00
39197;BME280;42889;51.112;13.772;2023-01-28T00:54:49;99963.44;;;-0.65;100.00
39197;BME280;42889;51.112;13.772;2023-01-28T00:57:18;99957.22;;;-0.64;100.00
39197;BME280;42889;51.112;13.772;2023-01-28T00:59:44;99962.16;;;-0.57;100.00
39197;BME280;42889;51.112;13.772;2023-01-28T01:02:12;99958.53;;;-0.54;100.00
39197;BME280;42889;51.112;13.772;2023-01-28T01:04:39;99959.19;;;-0.49;100.00
39197;BME280;42889;51.112;13.772;2023-01-28T01:07:06;99962.09;;;-0.55;100.00
39197;BME280;42889;51.112;13.772;2023-01-28T01:09:33;99960.97;;;-0.49;100.00
39197;BME280;42889;51.112;13.772;2023-01-28T01:11:59;99961.38;;;-0.59;100.00
39197;BME280;42889;51.112;13.772;2023-01-28T01:14:27;99961.97;;;-0.52;100.00
39197;BME280;42889;51.112;13.772;2023-01-28T01:16:53;99966.59;;;-0.57;100.00
39197;BME280;42889;51.112;13.772;2023-01-28T01:19:20;99960.97;;;-0.49;100.00
39197;BME280;42889;51.112;13.772;2023-01-28T01:21:47;99965.66;;;-0.56;100.00
39197;BME280;42889;51.112;13.772;2023-01-28T01:24:16;99964.47;;;-0.49;100.00
39197;BME280;42889;51.112;13.772;2023-01-28T01:26:43;99963.81;;;-0.54;100.00
39197;BME280;42889;51.112;13.772;2023-01-28T01:29:09;99968.97;;;-0.51;100.00
39197;BME280;42889;51.112;13.772;2023-01-28T01:31:36;99973.13;;;-0.45;100.00
39197;BME280;42889;51.112;13.772;2023-01-28T01:34:03;99977.47;;;-0.44;100.00
39197;BME280;42889;51.112;13.772;2023-01-28T01:36:30;99975.06;;;-0.49;100.00
39197;BME280;42889;51.112;13.772;2023-01-28T01:38:57;99975.25;;;-0.54;100.00
39197;BME280;42889;51.112;13.772;2023-01-28T01:41:31;99974.97;;;-0.47;100.00
39197;BME280;42889;51.112;13.772;2023-01-28T01:44:00;99981.97;;;-0.46;100.00
39197;BME280;42889;51.112;13.772;2023-01-28T01:46:47;99976.84;;;-0.49;100.00
39197;BME280;42889;51.112;13.772;2023-01-28T01:49:20;99980.59;;;-0.55;100.00
39197;BME280;42889;51.112;13.772;2023-01-28T01:51:50;99982.25;;;-0.52;100.00
39197;BME280;42889;51.112;13.772;2023-01-28T01:54:21;99973.16;;;-0.66;100.00
39197;BME280;42889;51.112;13.772;2023-01-28T01:56:52;99972.16;;;-0.63;100.00
39197;BME280;42889;51.112;13.772;2023-01-28T01:59:25;99971.31;;;-0.64;100.00
39197;BME280;42889;51.112;13.772;2023-01-28T02:01:54;99976.38;;;-0.59;100.00
39197;BME280;42889;51.112;13.772;2023-01-28T02:04:26;99976.03;;;-0.51;100.00
39197;BME280;42889;51.112;13.772;2023-01-28T02:06:56;99974.22;;;-0.70;100.00
39197;BME280;42889;51.112;13.772;2023-01-28T02:11:55;99968.59;;;-0.62;100.00
39197;BME280;42889;51.112;13.772;2023-01-28T02:14:27;99973.09;;;-0.64;100.00
39197;BME280;42889;51.112;13.772;2023-01-28T02:16:59;99968.50;;;-0.61;100.00
39197;BME280;42889;51.112;13.772;2023-01-28T02:19:50;99955.25;;;-0.59;100.00
39197;BME280;42889;51.112;13.772;2023-01-28T02:33:43;99966.69;;;-0.40;100.00
39197;BME280;42889;51.112;13.772;2023-01-28T02:36:34;99975.75;;;-0.45;100.00
39197;BME280;42889;51.112;13.772;2023-01-28T02:39:09;99974.78;;;-0.43;100.00
39197;BME280;42889;51.112;13.772;2023-01-28T02:41:57;99968.91;;;-0.49;100.00
39197;BME280;42889;51.112;13.772;2023-01-28T02:44:28;99971.31;;;-0.45;100.00
39197;BME280;42889;51.112;13.772;2023-01-28T02:46:54;99983.69;;;-0.45;100.00
39197;BME280;42889;51.112;13.772;2023-01-28T02:49:49;99981.03;;;-0.45;100.00
39197;BME280;42889;51.112;13.772;2023-01-28T03:03:25;99990.53;;;-0.60;100.00
39197;BME280;42889;51.112;13.772;2023-01-28T03:05:57;99990.59;;;-0.62;100.00
39197;BME280;42889;51.112;13.772;2023-01-28T03:08:44;99983.03;;;-0.50;100.00
39197;BME280;42889;51.112;13.772;2023-01-28T03:11:35;99990.84;;;-0.68;100.00
39197;BME280;42889;51.112;13.772;2023-01-28T03:14:23;99979.63;;;-0.73;100.00
39197;BME280;42889;51.112;13.772;2023-01-28T03:17:18;99986.03;;;-0.78;100.00
39197;BME280;42889;51.112;13.772;2023-01-28T03:20:07;99992.38;;;-0.83;100.00
39197;BME280;42889;51.112;13.772;2023-01-28T03:22:55;99994.03;;;-0.80;100.00
39197;BME280;42889;51.112;13.772;2023-01-28T03:25:43;99991.66;;;-0.86;100.00
39197;BME280;42889;51.112;13.772;2023-01-28T03:28:32;99997.19;;;-0.72;100.00
39197;BME280;42889;51.112;13.772;2023-01-28T03:31:21;99999.72;;;-0.89;100.00
39197;BME280;42889;51.112;13.772;2023-01-28T03:34:12;100000.00;;;-0.75;100.00
39197;BME280;42889;51.112;13.772;2023-01-28T03:36:58;100001.03;;;-0.79;100.00
39197;BME280;42889;51.112;13.772;2023-01-28T03:39:36;100009.50;;;-0.91;100.00
39197;BME280;42889;51.112;13.772;2023-01-28T03:42:09;100005.00;;;-0.89;100.00
39197;BME280;42889;51.112;13.772;2023-01-28T03:44:58;100008.06;;;-0.98;100.00
39197;BME280;42889;51.112;13.772;2023-01-28T03:47:28;100009.63;;;-0.94;100.00
39197;BME280;42889;51.112;13.772;2023-01-28T03:49:57;100015.84;;;-0.95;100.00
39197;BME280;42889;51.112;13.772;2023-01-28T03:52:30;100019.78;;;-1.06;100.00
39197;BME280;42889;51.112;13.772;2023-01-28T03:55:20;100015.50;;;-1.08;100.00
39197;BME280;42889;51.112;13.772;2023-01-28T03:57:49;100024.09;;;-1.03;100.00
39197;BME280;42889;51.112;13.772;2023-01-28T04:00:16;100019.13;;;-1.11;100.00
39197;BME280;42889;51.112;13.772;2023-01-28T04:02:43;100024.09;;;-1.03;100.00
39197;BME280;42889;51.112;13.772;2023-01-28T04:05:14;100028.97;;;-1.14;100.00
39197;BME280;42889;51.112;13.772;2023-01-28T04:07:47;100027.28;;;-1.17;100.00
39197;BME280;42889;51.112;13.772;2023-01-28T04:10:21;100028.72;;;-1.30;100.00
39197;BME280;42889;51.112;13.772;2023-01-28T04:12:53;100031.19;;;-1.25;100.00
39197;BME280;42889;51.112;13.772;2023-01-28T04:15:21;100031.38;;;-1.30;100.00
39197;BME280;42889;51.112;13.772;2023-01-28T04:17:49;100025.25;;;-1.30;100.00
39197;BME280;42889;51.112;13.772;2023-01-28T04:20:28;100033.44;;;-1.38;100.00
39197;BME280;42889;51.112;13.772;2023-01-28T04:22:57;100034.38;;;-1.39;100.00
39197;BME280;42889;51.112;13.772;2023-01-28T04:25:24;100033.78;;;-1.46;100.00
39197;BME280;42889;51.112;13.772;2023-01-28T04:27:52;100038.44;;;-1.52;100.00
39197;BME280;42889;51.112;13.772;2023-01-28T04:30:22;100032.97;;;-1.48;100.00
39197;BME280;42889;51.112;13.772;2023-01-28T04:33:09;100028.91;;;-1.56;100.00
39197;BME280;42889;51.112;13.772;2023-01-28T04:35:56;100038.19;;;-1.68;100.00
39197;BME280;42889;51.112;13.772;2023-01-28T04:38:43;100032.84;;;-1.67;100.00
39197;BME280;42889;51.112;13.772;2023-01-28T04:41:29;100038.47;;;-1.76;100.00
39197;BME280;42889;51.112;13.772;2023-01-28T04:44:01;100041.06;;;-1.74;100.00
39197;BME280;42889;51.112;13.772;2023-01-28T04:46:35;100052.13;;;-1.88;100.00
39197;BME280;42889;51.112;13.772;2023-01-28T04:49:22;100045.44;;;-1.97;100.00
39197;BME280;42889;51.112;13.772;2023-01-28T04:52:09;100049.97;;;-2.24;100.00
39197;BME280;42889;51.112;13.772;2023-01-28T04:55:01;100052.06;;;-2.10;100.00
39197;BME280;42889;51.112;13.772;2023-01-28T04:57:29;100050.69;;;-2.20;100.00
39197;BME280;42889;51.112;13.772;2023-01-28T04:59:55;100051.03;;;-2.29;100.00
39197;BME280;42889;51.112;13.772;2023-01-28T05:02:22;100054.00;;;-2.39;100.00
39197;BME280;42889;51.112;13.772;2023-01-28T05:04:49;100064.31;;;-2.32;100.00
39197;BME280;42889;51.112;13.772;2023-01-28T05:07:41;100058.97;;;-2.29;100.00
39197;BME280;42889;51.112;13.772;2023-01-28T05:10:09;100067.41;;;-2.20;100.00
39197;BME280;42889;51.112;13.772;2023-01-28T05:12:36;100060.75;;;-2.31;100.00
39197;BME280;42889;51.112;13.772;2023-01-28T05:15:06;100066.75;;;-2.26;100.00
39197;BME280;42889;51.112;13.772;2023-01-28T05:17:33;100063.09;;;-2.22;100.00
39197;BME280;42889;51.112;13.772;2023-01-28T05:20:00;100067.41;;;-2.20;100.00
39197;BME280;42889;51.112;13.772;2023-01-28T05:22:27;100066.47;;;-2.19;100.00
39197;BME280;42889;51.112;13.772;2023-01-28T05:25:12;100063.78;;;-2.42;100.00
39197;BME280;42889;51.112;13.772;2023-01-28T05:27:40;100077.56;;;-2.34;100.00
39197;BME280;42889;51.112;13.772;2023-01-28T05:30:07;100073.38;;;-2.40;100.00
39197;BME280;42889;51.112;13.772;2023-01-28T05:32:34;100080.63;;;-2.21;100.00
39197;BME280;42889;51.112;13.772;2023-01-28T05:35:00;100064.09;;;-2.26;100.00
39197;BME280;42889;51.112;13.772;2023-01-28T05:37:27;100082.22;;;-2.41;100.00
39197;BME280;42889;51.112;13.772;2023-01-28T05:39:55;100089.59;;;-2.27;100.00
39197;BME280;42889;51.112;13.772;2023-01-28T05:42:22;100092.03;;;-2.21;100.00
39197;BME280;42889;51.112;13.772;2023-01-28T05:44:53;100093.69;;;-2.18;100.00
39197;BME280;42889;51.112;13.772;2023-01-28T05:47:58;100098.13;;;-2.19;100.00
39197;BME280;42889;51.112;13.772;2023-01-28T05:50:38;100106.19;;;-2.23;100.00
39197;BME280;42889;51.112;13.772;2023-01-28T05:53:10;100108.97;;;-2.28;100.00
39197;BME280;42889;51.112;13.772;2023-01-28T05:55:40;100101.00;;;-2.26;100.00
39197;BME280;42889;51.112;13.772;2023-01-28T05:58:07;100107.13;;;-2.26;100.00
39197;BME280;42889;51.112;13.772;2023-01-28T06:00:35;100110.53;;;-2.22;100.00
39197;BME280;42889;51.112;13.772;2023-01-28T06:03:03;100111.72;;;-2.31;100.00
39197;BME280;42889;51.112;13.772;2023-01-28T06:05:30;100109.84;;;-2.27;100.00
39197;BME280;42889;51.112;13.772;2023-01-28T06:07:59;100116.09;;;-2.30;100.00
39197;BME280;42889;51.112;13.772;2023-01-28T06:10:25;100122.44;;;-2.35;100.00
39197;BME280;42889;51.112;13.772;2023-01-28T06:12:53;100125.19;;;-2.39;100.00
39197;BME280;42889;51.112;13.772;2023-01-28T06:15:43;100127.75;;;-2.37;100.00
39197;BME280;42889;51.112;13.772;2023-01-28T06:18:21;100133.44;;;-2.49;100.00
39197;BME280;42889;51.112;13.772;2023-01-28T06:20:49;100137.72;;;-2.45;100.00
39197;BME280;42889;51.112;13.772;2023-01-28T06:23:16;100148.13;;;-2.42;100.00
39197;BME280;42889;51.112;13.772;2023-01-28T06:25:43;100145.78;;;-2.50;100.00
39197;BME280;42889;51.112;13.772;2023-01-28T06:28:12;100147.34;;;-2.44;100.00
39197;BME280;42889;51.112;13.772;2023-01-28T06:30:38;100143.56;;;-2.37;100.00
39197;BME280;42889;51.112;13.772;2023-01-28T06:33:05;100148.47;;;-2.26;100.00
39197;BME280;42889;51.112;13.772;2023-01-28T06:35:32;100162.69;;;-2.30;100.00
39197;BME280;42889;51.112;13.772;2023-01-28T06:37:59;100162.38;;;-2.48;100.00
39197;BME280;42889;51.112;13.772;2023-01-28T06:40:25;100167.84;;;-2.54;100.00
39197;BME280;42889;51.112;13.772;2023-01-28T06:42:52;100171.06;;;-2.44;100.00
39197;BME280;42889;51.112;13.772;2023-01-28T06:45:19;100170.47;;;-2.52;100.00
39197;BME280;42889;51.112;13.772;2023-01-28T06:47:45;100169.97;;;-2.63;100.00
39197;BME280;42889;51.112;13.772;2023-01-28T06:50:12;100167.06;;;-2.56;100.00
39197;BME280;42889;51.112;13.772;2023-01-28T06:52:39;100170.47;;;-2.52;100.00
39197;BME280;42889;51.112;13.772;2023-01-28T06:55:07;100173.69;;;-2.44;100.00
39197;BME280;42889;51.112;13.772;2023-01-28T06:57:37;100175.53;;;-2.46;100.00
39197;BME280;42889;51.112;13.772;2023-01-28T07:00:05;100177.25;;;-2.45;100.00
39197;BME280;42889;51.112;13.772;2023-01-28T07:02:33;100180.59;;;-2.40;100.00
39197;BME280;42889;51.112;13.772;2023-01-28T07:05:00;100182.38;;;-2.41;100.00
39197;BME280;42889;51.112;13.772;2023-01-28T07:07:27;100181.59;;;-2.44;100.00
39197;BME280;42889;51.112;13.772;2023-01-28T07:09:54;100182.00;;;-2.56;100.00
39197;BME280;42889;51.112;13.772;2023-01-28T07:12:20;100186.09;;;-2.48;100.00
39197;BME280;42889;51.112;13.772;2023-01-28T07:14:47;100181.91;;;-2.53;100.00
39197;BME280;42889;51.112;13.772;2023-01-28T07:17:14;100188.50;;;-2.67;100.00
39197;BME280;42889;51.112;13.772;2023-01-28T07:19:40;100180.66;;;-2.68;100.00
39197;BME280;42889;51.112;13.772;2023-01-28T07:22:07;100181.25;;;-2.60;100.00
39197;BME280;42889;51.112;13.772;2023-01-28T07:24:34;100185.22;;;-2.73;100.00
39197;BME280;42889;51.112;13.772;2023-01-28T07:27:00;100180.38;;;-2.60;100.00
39197;BME280;42889;51.112;13.772;2023-01-28T07:29:27;100186.44;;;-2.57;100.00
39197;BME280;42889;51.112;13.772;2023-01-28T07:31:54;100193.34;;;-2.54;100.00
39197;BME280;42889;51.112;13.772;2023-01-28T07:34:20;100187.28;;;-2.56;100.00
39197;BME280;42889;51.112;13.772;2023-01-28T07:36:47;100188.78;;;-2.49;100.00
39197;BME280;42889;51.112;13.772;2023-01-28T07:39:14;100184.22;;;-2.44;100.00
39197;BME280;42889;51.112;13.772;2023-01-28T07:41:40;100186.06;;;-2.46;100.00
39197;BME280;42889;51.112;13.772;2023-01-28T07:44:09;100185.88;;;-2.40;100.00
39197;BME280;42889;51.112;13.772;2023-01-28T07:46:35;100191.28;;;-2.45;100.00
39197;BME280;42889;51.112;13.772;2023-01-28T07:49:02;100188.06;;;-2.28;100.00
39197;BME280;42889;51.112;13.772;2023-01-28T07:51:29;100190.81;;;-2.31;100.00
39197;BME280;42889;51.112;13.772;2023-01-28T07:53:56;100193.13;;;-2.22;100.00
39197;BME280;42889;51.112;13.772;2023-01-28T07:56:23;100194.31;;;-2.30;100.00
39197;BME280;42889;51.112;13.772;2023-01-28T07:58:50;100190.50;;;-2.22;100.00
39197;BME280;42889;51.112;13.772;2023-01-28T08:01:16;100196.84;;;-2.27;100.00
39197;BME280;42889;51.112;13.772;2023-01-28T08:03:45;100199.19;;;-2.18;100.00
39197;BME280;42889;51.112;13.772;2023-01-28T08:06:11;100205.31;;;-2.18;100.00
39197;BME280;42889;51.112;13.772;2023-01-28T08:08:38;100198.81;;;-2.07;100.00
39197;BME280;42889;51.112;13.772;2023-01-28T08:11:08;100204.78;;;-2.02;100.00
39197;BME280;42889;51.112;13.772;2023-01-28T08:13:36;100201.69;;;-2.15;100.00
39197;BME280;42889;51.112;13.772;2023-01-28T08:16:03;100202.13;;;-2.27;100.00
39197;BME280;42889;51.112;13.772;2023-01-28T08:18:29;100201.75;;;-2.17;100.00
39197;BME280;42889;51.112;13.772;2023-01-28T08:20:57;100207.34;;;-2.01;100.00
39197;BME280;42889;51.112;13.772;2023-01-28T08:23:25;100205.78;;;-2.06;100.00
39197;BME280;42889;51.112;13.772;2023-01-28T08:25:52;100205.16;;;-2.13;100.00
39197;BME280;42889;51.112;13.772;2023-01-28T08:28:20;100197.88;;;-2.06;100.00
39197;BME280;42889;51.112;13.772;2023-01-28T08:30:47;100203.03;;;-2.03;100.00
39197;BME280;42889;51.112;13.772;2023-01-28T08:33:15;100204.78;;;-2.02;100.00
39197;BME280;42889;51.112;13.772;2023-01-28T08:35:43;100199.72;;;-2.08;100.00
39197;BME280;42889;51.112;13.772;2023-01-28T08:38:12;100206.19;;;-1.92;100.00
39197;BME280;42889;51.112;13.772;2023-01-28T08:40:39;100210.31;;;-2.10;100.00
39197;BME280;42889;51.112;13.772;2023-01-28T08:43:05;100220.75;;;-2.07;100.00
39197;BME280;42889;51.112;13.772;2023-01-28T08:45:32;100212.00;;;-2.07;100.00
39197;BME280;42889;51.112;13.772;2023-01-28T08:48:05;100216.63;;;-2.14;100.00
39197;BME280;42889;51.112;13.772;2023-01-28T08:50:34;100218.97;;;-2.06;100.00
39197;BME280;42889;51.112;13.772;2023-01-28T08:53:10;100218.13;;;-2.07;100.00
39197;BME280;42889;51.112;13.772;2023-01-28T08:55:37;100217.28;;;-2.09;100.00
39197;BME280;42889;51.112;13.772;2023-01-28T08:58:06;100228.31;;;-1.96;100.00
39197;BME280;42889;51.112;13.772;2023-01-28T09:00:33;100228.78;;;-1.85;100.00
39197;BME280;42889;51.112;13.772;2023-01-28T09:03:01;100232.22;;;-1.83;100.00
39197;BME280;42889;51.112;13.772;2023-01-28T09:05:33;100240.03;;;-1.80;100.00
39197;BME280;42889;51.112;13.772;2023-01-28T09:08:09;100233.41;;;-1.67;100.00
39197;BME280;42889;51.112;13.772;2023-01-28T09:10:36;100242.34;;;-1.71;100.00
39197;BME280;42889;51.112;13.772;2023-01-28T09:13:05;100235.63;;;-1.79;100.00
39197;BME280;42889;51.112;13.772;2023-01-28T09:15:33;100233.50;;;-1.95;100.00
39197;BME280;42889;51.112;13.772;2023-01-28T09:18:00;100235.72;;;-1.82;100.00
39197;BME280;42889;51.112;13.772;2023-01-28T09:20:26;100239.44;;;-1.88;100.00
39197;BME280;42889;51.112;13.772;2023-01-28T09:22:53;100244.34;;;-1.77;100.00
39197;BME280;42889;51.112;13.772;2023-01-28T09:25:20;100243.47;;;-1.78;100.00
39197;BME280;42889;51.112;13.772;2023-01-28T09:27:47;100232.03;;;-2.03;100.00
39197;BME280;42889;51.112;13.772;2023-01-28T09:30:14;100243.16;;;-1.94;100.00
39197;BME280;42889;51.112;13.772;2023-01-28T09:32:41;100249.97;;;-1.88;100.00
39197;BME280;42889;51.112;13.772;2023-01-28T09:35:08;100246.13;;;-1.78;100.00
39197;BME280;42889;51.112;13.772;2023-01-28T09:37:35;100245.47;;;-1.84;100.00
39197;BME280;42889;51.112;13.772;2023-01-28T09:40:02;100249.84;;;-1.83;100.00
39197;BME280;42889;51.112;13.772;2023-01-28T09:45:27;100245.63;;;-1.89;100.00
39197;BME280;42889;51.112;13.772;2023-01-28T09:47:59;100242.34;;;-1.96;100.00
39197;BME280;42889;51.112;13.772;2023-01-28T09:50:37;100252.63;;;-1.88;100.00
39197;BME280;42889;51.112;13.772;2023-01-28T09:53:27;100247.69;;;-1.97;100.00
39197;BME280;42889;51.112;13.772;2023-01-28T09:55:59;100254.31;;;-1.86;100.00
39197;BME280;42889;51.112;13.772;2023-01-28T09:58:26;100254.31;;;-1.86;100.00
39197;BME280;42889;51.112;13.772;2023-01-28T10:01:05;100253.22;;;-1.80;100.00
39197;BME280;42889;51.112;13.772;2023-01-28T10:15:39;100255.97;;;-1.58;100.00
39197;BME280;42889;51.112;13.772;2023-01-28T10:18:12;100254.25;;;-1.59;100.00
39197;BME280;42889;51.112;13.772;2023-01-28T10:23:19;100265.81;;;-1.63;100.00
39197;BME280;42889;51.112;13.772;2023-01-28T10:25:48;100264.59;;;-1.78;100.00
39197;BME280;42889;51.112;13.772;2023-01-28T10:28:20;100267.22;;;-1.78;100.00
39197;BME280;42889;51.112;13.772;2023-01-28T10:30:50;100281.56;;;-1.85;100.00
39197;BME280;42889;51.112;13.772;2023-01-28T10:35:54;100275.94;;;-1.76;100.00
39197;BME280;42889;51.112;13.772;2023-01-28T10:38:23;100278.78;;;-1.82;100.00
39197;BME280;42889;51.112;13.772;2023-01-28T10:40:50;100275.41;;;-1.86;100.00
39197;BME280;42889;51.112;13.772;2023-01-28T10:43:22;100275.63;;;-1.92;100.00
39197;BME280;42889;51.112;13.772;2023-01-28T10:46:10;100278.28;;;-1.93;100.00
39197;BME280;42889;51.112;13.772;2023-01-28T10:51:10;100286.50;;;-1.76;100.00
39197;BME280;42889;51.112;13.772;2023-01-28T10:53:42;100284.69;;;-1.74;100.00
39197;BME280;42889;51.112;13.772;2023-01-28T10:56:35;100289.81;;;-1.69;100.00
39197;BME280;42889;51.112;13.772;2023-01-28T10:59:05;100288.34;;;-1.78;100.00
39197;BME280;42889;51.112;13.772;2023-01-28T11:01:39;100291.88;;;-1.79;100.00
39197;BME280;42889;51.112;13.772;2023-01-28T11:04:28;100284.97;;;-1.83;100.00
39197;BME280;42889;51.112;13.772;2023-01-28T11:09:27;100280.69;;;-1.86;100.00
39197;BME280;42889;51.112;13.772;2023-01-28T11:11:54;100282.34;;;-1.83;100.00
39197;BME280;42889;51.112;13.772;2023-01-28T11:14:24;100277.78;;;-1.78;100.00
39197;BME280;42889;51.112;13.772;2023-01-28T11:16:53;100273.97;;;-1.69;100.00
39197;BME280;42889;51.112;13.772;2023-01-28T11:19:27;100279.19;;;-1.68;100.00
39197;BME280;42889;51.112;13.772;2023-01-28T11:21:55;100275.75;;;-1.70;100.00
39197;BME280;42889;51.112;13.772;2023-01-28T11:24:26;100279.19;;;-1.68;100.00
39197;BME280;42889;51.112;13.772;2023-01-28T11:26:55;100282.53;;;-1.63;100.00
39197;BME280;42889;51.112;13.772;2023-01-28T11:31:52;100281.13;;;-1.73;100.00
39197;BME280;42889;51.112;13.772;2023-01-28T11:34:19;100275.03;;;-1.75;100.00
39197;BME280;42889;51.112;13.772;2023-01-28T11:37:13;100272.13;;;-1.67;100.00
39197;BME280;42889;51.112;13.772;2023-01-28T11:39:44;100273.03;;;-1.68;100.00
39197;BME280;42889;51.112;13.772;2023-01-28T11:42:18;100254.41;;;-1.64;100.00
39197;BME280;42889;51.112;13.772;2023-01-28T11:44:46;100261.47;;;-1.64;100.00
39197;BME280;42889;51.112;13.772;2023-01-28T11:48:33;100252.56;;;-1.62;100.00
39197;BME280;42889;51.112;13.772;2023-01-28T11:50:35;100259.25;;;-1.76;100.00
39197;BME280;42889;51.112;13.772;2023-01-28T11:53:26;100264.28;;;-1.69;100.00
39197;BME280;42889;51.112;13.772;2023-01-28T12:01:57;100255.81;;;-1.78;100.00
39197;BME280;42889;51.112;13.772;2023-01-28T12:15:07;100245.44;;;-1.60;100.00
39197;BME280;42889;51.112;13.772;2023-01-28T12:20:30;100249.66;;;-1.79;100.00
39197;BME280;42889;51.112;13.772;2023-01-28T12:26:13;100252.09;;;-1.73;100.00
39197;BME280;42889;51.112;13.772;2023-01-28T12:42:51;100237.53;;;-1.60;100.00
39197;BME280;42889;51.112;13.772;2023-01-28T12:45:28;100226.41;;;-1.68;100.00
39197;BME280;42889;51.112;13.772;2023-01-28T12:48:03;100231.38;;;-1.60;100.00
39197;BME280;42889;51.112;13.772;2023-01-28T12:53:37;100235.88;;;-1.62;100.00
39197;BME280;42889;51.112;13.772;2023-01-28T12:56:11;100232.69;;;-1.72;100.00
39197;BME280;42889;51.112;13.772;2023-01-28T12:58:49;100236.03;;;-1.67;100.00
39197;BME280;42889;51.112;13.772;2023-01-28T13:01:25;100232.75;;;-1.73;100.00
39197;BME280;42889;51.112;13.772;2023-01-28T13:04:12;100229.13;;;-1.71;100.00
39197;BME280;42889;51.112;13.772;2023-01-28T13:06:57;100222.63;;;-1.61;100.00
39197;BME280;42889;51.112;13.772;2023-01-28T13:09:25;100235.31;;;-1.70;100.00
39197;BME280;42889;51.112;13.772;2023-01-28T13:11:56;100230.53;;;-1.61;100.00
39197;BME280;42889;51.112;13.772;2023-01-28T13:14:29;100224.69;;;-1.69;100.00
39197;BME280;42889;51.112;13.772;2023-01-28T13:17:27;100231.84;;;-1.72;100.00
39197;BME280;42889;51.112;13.772;2023-01-28T13:19:54;100237.88;;;-1.69;100.00
39197;BME280;42889;51.112;13.772;2023-01-28T13:22:35;100235.25;;;-1.69;100.00
39197;BME280;42889;51.112;13.772;2023-01-28T13:25:21;100242.56;;;-1.77;100.00
39197;BME280;42889;51.112;13.772;2023-01-28T13:28:03;100239.13;;;-1.79;100.00
39197;BME280;42889;51.112;13.772;2023-01-28T13:30:33;100234.00;;;-1.58;100.00
39197;BME280;42889;51.112;13.772;2023-01-28T13:33:04;100239.06;;;-1.77;100.00
39197;BME280;42889;51.112;13.772;2023-01-28T13:35:32;100242.06;;;-1.63;100.00
39197;BME280;42889;51.112;13.772;2023-01-28T13:38:06;100241.63;;;-1.76;100.00
39197;BME280;42889;51.112;13.772;2023-01-28T13:40:34;100241.38;;;-1.68;100.00
39197;BME280;42889;51.112;13.772;2023-01-28T13:43:23;100250.06;;;-1.65;100.00
39197;BME280;42889;51.112;13.772;2023-01-28T13:45:58;100241.06;;;-1.59;100.00
39197;BME280;42889;51.112;13.772;2023-01-28T13:51:01;100245.97;;;-1.73;100.00
39197;BME280;42889;51.112;13.772;2023-01-28T13:53:40;100248.69;;;-1.76;100.00
39197;BME280;42889;51.112;13.772;2023-01-28T13:56:21;100254.94;;;-1.79;100.00
39197;BME280;42889;51.112;13.772;2023-01-28T14:04:49;100266.03;;;-1.94;100.00
39197;BME280;42889;51.112;13.772;2023-01-28T14:13:25;100272.44;;;-1.76;100.00
39197;BME280;42889;51.112;13.772;2023-01-28T14:16:24;100271.63;;;-1.78;100.00
39197;BME280;42889;51.112;13.772;2023-01-28T14:18:55;100276.91;;;-1.78;100.00
39197;BME280;42889;51.112;13.772;2023-01-28T14:21:26;100269.84;;;-1.78;100.00
39197;BME280;42889;51.112;13.772;2023-01-28T14:23:55;100281.03;;;-1.70;100.00
39197;BME280;42889;51.112;13.772;2023-01-28T14:31:38;100279.50;;;-1.77;100.00
39197;BME280;42889;51.112;13.772;2023-01-28T14:34:33;100279.56;;;-1.78;100.00
39197;BME280;42889;51.112;13.772;2023-01-28T14:37:05;100273.84;;;-1.91;100.00
39197;BME280;42889;51.112;13.772;2023-01-28T14:39:42;100262.97;;;-1.82;100.00
39197;BME280;42889;51.112;13.772;2023-01-28T14:42:16;100258.50;;;-1.80;100.00
39197;BME280;42889;51.112;13.772;2023-01-28T14:44:45;100259.59;;;-1.86;100.00
39197;BME280;42889;51.112;13.772;2023-01-28T14:50:20;100259.53;;;-1.84;100.00
39197;BME280;42889;51.112;13.772;2023-01-28T14:53:29;100268.50;;;-1.90;100.00